sensor_id;sensor_type;location;lat;lon;timestamp;P1;durP1;ratioP1;P2;durP2;ratioP2
9094;SDS011;4583;49.796;9.902;2022-10-17T00:04:01;16.97;;;5.40;;
9094;SDS011;4583;49.796;9.902;2022-10-17T00:14:03;13.07;;;5.57;;
9094;SDS011;4583;49.796;9.902;2022-10-17T00:24:04;56.70;;;6.40;;
9094;SDS011;4583;49.796;9.902;2022-10-17T00:34:06;26.77;;;5.23;;
9094;SDS011;4583;49.796;9.902;2022-10-17T00:54:33;40.60;;;6.00;;
9094;SDS011;4583;49.796;9.902;2022-10-17T01:04:37;24.77;;;5.63;;
9094;SDS011;4583;49.796;9.902;2022-10-17T01:45:15;15.63;;;5.50;;
9094;SDS011;4583;49.796;9.902;2022-10-17T01:55:40;20.50;;;5.43;;
9094;SDS011;4583;49.796;9.902;2022-10-17T02:05:43;7.93;;;4.70;;
9094;SDS011;4583;49.796;9.902;2022-10-17T02:15:48;22.97;;;5.10;;
9094;SDS011;4583;49.796;9.902;2022-10-17T02:26:13;38.80;;;5.90;;
9094;SDS011;4583;49.796;9.902;2022-10-17T02:36:25;46.80;;;4.97;;
9094;SDS011;4583;49.796;9.902;2022-10-17T02:46:31;35.77;;;4.47;;
9094;SDS011;4583;49.796;9.902;2022-10-17T02:56:40;29.80;;;4.73;;
9094;SDS011;4583;49.796;9.902;2022-10-17T03:06:48;60.00;;;5.03;;
9094;SDS011;4583;49.796;9.902;2022-10-17T03:16:50;102.10;;;5.40;;
9094;SDS011;4583;49.796;9.902;2022-10-17T03:26:51;22.20;;;4.70;;
9094;SDS011;4583;49.796;9.902;2022-10-17T03:36:53;134.23;;;6.10;;
9094;SDS011;4583;49.796;9.902;2022-10-17T03:46:55;123.53;;;5.40;;
9094;SDS011;4583;49.796;9.902;2022-10-17T03:56:57;19.17;;;3.60;;
9094;SDS011;4583;49.796;9.902;2022-10-17T04:06:59;60.43;;;4.67;;
9094;SDS011;4583;49.796;9.902;2022-10-17T04:17:01;40.20;;;4.30;;
9094;SDS011;4583;49.796;9.902;2022-10-17T04:27:02;117.30;;;5.30;;
9094;SDS011;4583;49.796;9.902;2022-10-17T04:37:04;20.93;;;4.27;;
9094;SDS011;4583;49.796;9.902;2022-10-17T04:47:06;28.80;;;4.60;;
9094;SDS011;4583;49.796;9.902;2022-10-17T04:57:08;33.07;;;4.30;;
9094;SDS011;4583;49.796;9.902;2022-10-17T05:07:10;12.33;;;3.63;;
9094;SDS011;4583;49.796;9.902;2022-10-17T05:17:12;84.77;;;8.13;;
9094;SDS011;4583;49.796;9.902;2022-10-17T05:27:13;28.57;;;6.30;;
9094;SDS011;4583;49.796;9.902;2022-10-17T05:37:15;25.30;;;8.83;;
9094;SDS011;4583;49.796;9.902;2022-10-17T05:47:16;43.67;;;4.43;;
9094;SDS011;4583;49.796;9.902;2022-10-17T05:57:18;56.40;;;7.97;;
9094;SDS011;4583;49.796;9.902;2022-10-17T06:07:20;37.80;;;6.30;;
9094;SDS011;4583;49.796;9.902;2022-10-17T06:17:22;42.30;;;4.77;;
9094;SDS011;4583;49.796;9.902;2022-10-17T06:27:23;16.00;;;4.53;;
9094;SDS011;4583;49.796;9.902;2022-10-17T06:37:25;17.60;;;4.57;;
9094;SDS011;4583;49.796;9.902;2022-10-17T06:47:36;38.97;;;5.60;;
9094;SDS011;4583;49.796;9.902;2022-10-17T06:57:38;24.17;;;5.80;;
9094;SDS011;4583;49.796;9.902;2022-10-17T07:07:40;14.63;;;4.17;;
9094;SDS011;4583;49.796;9.902;2022-10-17T07:17:48;35.67;;;4.97;;
9094;SDS011;4583;49.796;9.902;2022-10-17T07:27:53;20.67;;;5.67;;
9094;SDS011;4583;49.796;9.902;2022-10-17T07:37:54;34.70;;;6.50;;
9094;SDS011;4583;49.796;9.902;2022-10-17T07:47:56;26.50;;;8.83;;
9094;SDS011;4583;49.796;9.902;2022-10-17T07:57:58;36.57;;;17.97;;
9094;SDS011;4583;49.796;9.902;2022-10-17T08:08:02;31.63;;;15.27;;
9094;SDS011;4583;49.796;9.902;2022-10-17T08:18:04;24.27;;;13.53;;
9094;SDS011;4583;49.796;9.902;2022-10-17T08:28:06;22.97;;;13.40;;
9094;SDS011;4583;49.796;9.902;2022-10-17T08:38:13;27.40;;;13.73;;
9094;SDS011;4583;49.796;9.902;2022-10-17T08:48:17;22.40;;;12.73;;
9094;SDS011;4583;49.796;9.902;2022-10-17T08:58:23;21.17;;;11.57;;
9094;SDS011;4583;49.796;9.902;2022-10-17T09:29:25;15.00;;;9.33;;
9094;SDS011;4583;49.796;9.902;2022-10-17T09:39:35;11.50;;;8.03;;
9094;SDS011;4583;49.796;9.902;2022-10-17T09:49:38;12.33;;;7.50;;
9094;SDS011;4583;49.796;9.902;2022-10-17T10:00:05;7.07;;;4.50;;
9094;SDS011;4583;49.796;9.902;2022-10-17T10:10:22;10.70;;;3.57;;
9094;SDS011;4583;49.796;9.902;2022-10-17T10:20:32;7.57;;;3.67;;
9094;SDS011;4583;49.796;9.902;2022-10-17T10:30:36;10.40;;;3.60;;
9094;SDS011;4583;49.796;9.902;2022-10-17T10:40:44;7.97;;;3.70;;
9094;SDS011;4583;49.796;9.902;2022-10-17T10:50:59;12.43;;;7.77;;
9094;SDS011;4583;49.796;9.902;2022-10-17T11:12:04;9.57;;;5.60;;
9094;SDS011;4583;49.796;9.902;2022-10-17T11:22:15;9.70;;;5.70;;
9094;SDS011;4583;49.796;9.902;2022-10-17T11:32:36;12.13;;;3.83;;
9094;SDS011;4583;49.796;9.902;2022-10-17T11:42:58;9.03;;;3.93;;
9094;SDS011;4583;49.796;9.902;2022-10-17T11:53:04;9.20;;;3.20;;
9094;SDS011;4583;49.796;9.902;2022-10-17T12:23:38;7.87;;;3.47;;
9094;SDS011;4583;49.796;9.902;2022-10-17T12:43:53;9.33;;;2.63;;
9094;SDS011;4583;49.796;9.902;2022-10-17T12:54:07;3.37;;;2.13;;
9094;SDS011;4583;49.796;9.902;2022-10-17T13:04:17;9.53;;;2.20;;
9094;SDS011;4583;49.796;9.902;2022-10-17T13:14:20;4.57;;;2.20;;
9094;SDS011;4583;49.796;9.902;2022-10-17T13:24:28;4.43;;;2.30;;
9094;SDS011;4583;49.796;9.902;2022-10-17T13:34:34;6.23;;;2.23;;
9094;SDS011;4583;49.796;9.902;2022-10-17T13:44:36;4.43;;;1.70;;
9094;SDS011;4583;49.796;9.902;2022-10-17T13:54:44;2.13;;;1.93;;
9094;SDS011;4583;49.796;9.902;2022-10-17T14:15:21;8.33;;;3.20;;
9094;SDS011;4583;49.796;9.902;2022-10-17T14:25:27;3.40;;;2.37;;
9094;SDS011;4583;49.796;9.902;2022-10-17T14:35:32;4.50;;;1.93;;
9094;SDS011;4583;49.796;9.902;2022-10-17T14:45:42;5.10;;;2.80;;
9094;SDS011;4583;49.796;9.902;2022-10-17T14:55:56;3.67;;;1.90;;
9094;SDS011;4583;49.796;9.902;2022-10-17T15:06:21;6.40;;;2.20;;
9094;SDS011;4583;49.796;9.902;2022-10-17T15:16:30;7.43;;;2.03;;
9094;SDS011;4583;49.796;9.902;2022-10-17T15:26:34;6.93;;;3.00;;
9094;SDS011;4583;49.796;9.902;2022-10-17T15:36:38;17.80;;;3.60;;
9094;SDS011;4583;49.796;9.902;2022-10-17T15:46:41;5.80;;;2.47;;
9094;SDS011;4583;49.796;9.902;2022-10-17T15:56:45;9.90;;;3.60;;
9094;SDS011;4583;49.796;9.902;2022-10-17T16:06:55;5.03;;;2.40;;
9094;SDS011;4583;49.796;9.902;2022-10-17T16:16:57;6.73;;;3.00;;
9094;SDS011;4583;49.796;9.902;2022-10-17T16:27:00;4.57;;;2.67;;
9094;SDS011;4583;49.796;9.902;2022-10-17T16:37:02;8.67;;;2.30;;
9094;SDS011;4583;49.796;9.902;2022-10-17T16:47:04;7.17;;;4.50;;
9094;SDS011;4583;49.796;9.902;2022-10-17T16:57:05;13.10;;;5.60;;
9094;SDS011;4583;49.796;9.902;2022-10-17T17:07:07;12.40;;;4.60;;
9094;SDS011;4583;49.796;9.902;2022-10-17T17:17:09;14.70;;;4.27;;
9094;SDS011;4583;49.796;9.902;2022-10-17T17:27:30;10.40;;;4.67;;
9094;SDS011;4583;49.796;9.902;2022-10-17T17:37:32;13.10;;;4.70;;
9094;SDS011;4583;49.796;9.902;2022-10-17T17:47:34;12.43;;;5.20;;
9094;SDS011;4583;49.796;9.902;2022-10-17T17:57:36;13.63;;;5.57;;
9094;SDS011;4583;49.796;9.902;2022-10-17T18:07:37;11.93;;;6.10;;
9094;SDS011;4583;49.796;9.902;2022-10-17T18:17:39;7.93;;;5.20;;
9094;SDS011;4583;49.796;9.902;2022-10-17T18:27:41;8.13;;;5.00;;
9094;SDS011;4583;49.796;9.902;2022-10-17T18:37:43;12.80;;;5.67;;
9094;SDS011;4583;49.796;9.902;2022-10-17T18:47:44;11.23;;;5.30;;
9094;SDS011;4583;49.796;9.902;2022-10-17T18:57:47;13.20;;;6.23;;
9094;SDS011;4583;49.796;9.902;2022-10-17T19:07:50;11.67;;;5.80;;
9094;SDS011;4583;49.796;9.902;2022-10-17T19:17:51;9.97;;;5.37;;
9094;SDS011;4583;49.796;9.902;2022-10-17T19:27:53;17.10;;;6.00;;
9094;SDS011;4583;49.796;9.902;2022-10-17T19:37:55;9.70;;;6.10;;
9094;SDS011;4583;49.796;9.902;2022-10-17T19:47:56;9.50;;;5.97;;
9094;SDS011;4583;49.796;9.902;2022-10-17T19:57:58;8.97;;;5.63;;
9094;SDS011;4583;49.796;9.902;2022-10-17T20:08:02;10.90;;;6.00;;
9094;SDS011;4583;49.796;9.902;2022-10-17T20:18:04;14.10;;;6.30;;
9094;SDS011;4583;49.796;9.902;2022-10-17T20:28:07;17.10;;;6.70;;
9094;SDS011;4583;49.796;9.902;2022-10-17T20:38:09;9.57;;;6.23;;
9094;SDS011;4583;49.796;9.902;2022-10-17T20:48:12;16.43;;;6.40;;
9094;SDS011;4583;49.796;9.902;2022-10-17T20:58:15;17.00;;;6.70;;
9094;SDS011;4583;49.796;9.902;2022-10-17T21:08:17;15.43;;;6.30;;
9094;SDS011;4583;49.796;9.902;2022-10-17T21:18:18;16.90;;;5.97;;
9094;SDS011;4583;49.796;9.902;2022-10-17T21:28:20;14.93;;;6.30;;
9094;SDS011;4583;49.796;9.902;2022-10-17T21:38:22;13.20;;;6.97;;
9094;SDS011;4583;49.796;9.902;2022-10-17T21:48:23;20.23;;;6.33;;
9094;SDS011;4583;49.796;9.902;2022-10-17T21:58:25;11.37;;;6.10;;
9094;SDS011;4583;49.796;9.902;2022-10-17T22:08:28;13.00;;;6.13;;
9094;SDS011;4583;49.796;9.902;2022-10-17T22:18:30;13.63;;;6.03;;
9094;SDS011;4583;49.796;9.902;2022-10-17T22:28:33;12.97;;;5.73;;
9094;SDS011;4583;49.796;9.902;2022-10-17T22:38:35;18.53;;;6.00;;
9094;SDS011;4583;49.796;9.902;2022-10-17T22:48:37;12.10;;;5.33;;
9094;SDS011;4583;49.796;9.902;2022-10-17T22:58:39;14.37;;;5.43;;
9094;SDS011;4583;49.796;9.902;2022-10-17T23:08:41;9.70;;;5.60;;
9094;SDS011;4583;49.796;9.902;2022-10-17T23:18:43;8.47;;;4.80;;
9094;SDS011;4583;49.796;9.902;2022-10-17T23:28:45;12.07;;;5.53;;
9094;SDS011;4583;49.796;9.902;2022-10-17T23:38:47;11.17;;;5.23;;
9094;SDS011;4583;49.796;9.902;2022-10-17T23:48:50;17.10;;;5.80;;
9094;SDS011;4583;49.796;9.902;2022-10-17T23:58:52;14.37;;;5.57;;
